Saire, Brazil
Current Conditions -  °F | °C
As of 3:00 PM on Sunday 21 Dec 2014 (Local Time) from SBRF Reporting Station
Few Clouds Few Clouds  
Wind Chill: 84°   Ceiling: Unl
Heat Index: 91°   Visibility: 6mi
Dew Point: 73°   Wind: 10mph
Humidity: 70%   Direction: 100°E
Pressure: 29.88"   Gusts: NA
Location:  8.33°S, 35.64°W
Report Text: SBRF 211800Z 10009KT 9999 FEW023 29/23 Q1012
Loading
Personal Weather Stations






























Interactive Weather Map New forecast layout! Learn more

10-Day Weather Forecast

Advertisements
Track Severe Weather on mobile